Time;durP1;ratioP1;P1;durP2;ratioP2;P2;SDS_P1;SDS_P2;PMS_P1;PMS_P2;Temp;Humidity;BMP_temperature;BMP_pressure;BME280_temperature;BME280_humidity;BME280_pressure;Samples;Min_cycle;Max_cycle;Signal;HPM_P1;HPM_P2
2021/09/14 00:01:56;;;;;;;10.20;5.88;;;17.80;99.90;;;;;;5098633;28;20091;-82
2021/09/14 00:04:22;;;;;;;9.57;5.63;;;17.80;99.90;;;;;;5098537;28;20035;-82
2021/09/14 00:06:47;;;;;;;9.18;5.28;;;17.80;99.90;;;;;;5097939;28;20031;-82
2021/09/14 00:09:13;;;;;;;9.98;5.78;;;17.70;99.90;;;;;;5115632;28;20137;-81
2021/09/14 00:11:39;;;;;;;7.78;5.38;;;17.70;99.90;;;;;;5116645;28;20027;-82
2021/09/14 00:14:05;;;;;;;8.75;5.15;;;17.70;99.90;;;;;;5116718;28;20015;-83
2021/09/14 00:16:32;;;;;;;7.13;5.07;;;17.70;99.90;;;;;;5106030;27;20084;-82
2021/09/14 00:18:58;;;;;;;7.82;5.30;;;17.70;99.90;;;;;;5116938;28;20054;-82
2021/09/14 00:21:23;;;;;;;10.65;5.13;;;17.60;99.90;;;;;;5117293;28;20437;-81
2021/09/14 00:23:49;;;;;;;8.70;5.95;;;17.60;99.90;;;;;;5106743;28;20388;-82
2021/09/14 00:26:15;;;;;;;6.97;4.95;;;17.60;99.90;;;;;;5116939;28;20015;-82
2021/09/14 00:28:40;;;;;;;8.90;6.15;;;17.60;99.90;;;;;;5136077;28;20368;-81
2021/09/14 00:31:06;;;;;;;8.48;5.90;;;17.60;99.90;;;;;;5131797;28;20068;-81
2021/09/14 00:33:31;;;;;;;8.27;6.07;;;17.60;99.90;;;;;;5149473;27;20034;-83
2021/09/14 00:35:57;;;;;;;8.65;5.82;;;17.60;99.90;;;;;;5158196;27;20027;-82
2021/09/14 00:38:22;;;;;;;9.10;6.00;;;17.60;99.90;;;;;;5158649;27;20378;-82
2021/09/14 00:40:48;;;;;;;10.55;6.70;;;17.50;99.90;;;;;;5116304;28;20027;-82
2021/09/14 00:43:21;;;;;;;9.45;6.38;;;17.50;99.90;;;;;;5115754;28;20125;-82
2021/09/14 00:45:48;;;;;;;11.45;6.63;;;17.50;99.90;;;;;;5115957;28;20024;-82
2021/09/14 00:48:14;;;;;;;10.13;6.97;;;17.50;99.90;;;;;;5116814;28;20035;-82
2021/09/14 00:50:40;;;;;;;10.68;7.28;;;17.40;99.90;;;;;;5117669;28;20070;-82
2021/09/14 00:53:06;;;;;;;10.98;7.00;;;17.40;99.90;;;;;;5115332;28;20016;-81
2021/09/14 00:55:31;;;;;;;9.63;6.45;;;17.30;99.90;;;;;;5110291;28;20466;-82
2021/09/14 00:57:57;;;;;;;8.50;6.70;;;17.30;99.90;;;;;;5098652;28;20037;-82
2021/09/14 01:00:23;;;;;;;10.00;6.70;;;17.40;99.90;;;;;;5116249;28;20066;-82
2021/09/14 01:02:49;;;;;;;8.27;6.28;;;17.30;99.90;;;;;;5116405;28;20070;-82
2021/09/14 01:05:15;;;;;;;10.40;6.72;;;17.30;99.90;;;;;;5114635;28;20036;-82
2021/09/14 01:07:42;;;;;;;9.20;6.47;;;17.30;99.90;;;;;;5112863;28;20480;-82
2021/09/14 01:10:08;;;;;;;8.85;5.88;;;17.30;99.90;;;;;;5115149;28;20458;-82
2021/09/14 01:12:34;;;;;;;10.40;7.30;;;17.30;99.90;;;;;;5116737;28;20035;-81
2021/09/14 01:14:59;;;;;;;9.90;6.53;;;17.30;99.90;;;;;;5115982;28;20016;-82
2021/09/14 01:17:26;;;;;;;9.43;6.70;;;17.30;99.90;;;;;;5117459;28;20102;-82
2021/09/14 01:19:51;;;;;;;11.65;6.40;;;17.30;99.90;;;;;;5117927;28;20068;-82
2021/09/14 01:22:17;;;;;;;8.63;6.00;;;17.30;99.90;;;;;;5102969;28;20073;-81
2021/09/14 01:24:43;;;;;;;10.88;6.72;;;17.30;99.90;;;;;;5104094;28;20131;-82
2021/09/14 01:27:09;;;;;;;9.68;6.65;;;17.30;99.90;;;;;;5104129;28;20083;-82
2021/09/14 01:32:19;;;;;;;9.25;6.15;;;17.30;99.90;;;;;;5143547;27;20029;-82
2021/09/14 01:34:44;;;;;;;10.07;6.50;;;17.30;99.90;;;;;;5151813;27;20099;-82
2021/09/14 01:37:10;;;;;;;10.15;5.97;;;17.20;99.90;;;;;;5122233;28;20027;-83
2021/09/14 01:39:35;;;;;;;9.10;5.78;;;17.20;99.90;;;;;;5121813;28;20086;-82
2021/09/14 01:42:01;;;;;;;10.38;7.00;;;17.20;99.90;;;;;;5103561;28;20042;-83
2021/09/14 01:44:27;;;;;;;12.07;6.05;;;17.20;99.90;;;;;;5103268;28;20042;-83
2021/09/14 01:46:53;;;;;;;9.07;5.88;;;17.20;99.90;;;;;;5121605;28;20119;-83
2021/09/14 01:49:19;;;;;;;10.73;5.88;;;17.20;99.90;;;;;;5102997;28;20024;-83
2021/09/14 01:51:45;;;;;;;8.20;5.53;;;17.20;99.90;;;;;;5114862;28;20028;-82
2021/09/14 01:54:10;;;;;;;10.15;5.95;;;17.20;99.90;;;;;;5122211;27;20019;-82
2021/09/14 01:56:37;;;;;;;8.75;6.55;;;17.10;99.90;;;;;;5102351;28;20020;-82
2021/09/14 01:59:03;;;;;;;12.13;7.15;;;17.10;99.90;;;;;;5118921;28;20115;-82
2021/09/14 02:01:36;;;;;;;11.10;6.60;;;17.10;99.90;;;;;;5119400;28;20391;-82
2021/09/14 02:04:09;;;;;;;10.90;6.88;;;17.00;99.90;;;;;;5120344;28;20106;-82
2021/09/14 02:39:32;;;;;;;8.52;5.93;;;16.70;99.90;;;;;;5136070;27;20120;-83
2021/09/14 03:00:44;;;;;;;8.40;5.85;;;16.60;99.90;;;;;;5119923;28;20039;-84
2021/09/14 03:03:10;;;;;;;11.07;6.18;;;16.60;99.90;;;;;;5088718;23;20045;-83
2021/09/14 03:05:35;;;;;;;13.70;6.15;;;16.60;99.90;;;;;;5059897;28;20050;-83
2021/09/14 03:08:01;;;;;;;9.45;5.80;;;16.60;99.90;;;;;;5070120;28;20059;-82
2021/09/14 03:10:26;;;;;;;9.38;5.72;;;16.60;99.90;;;;;;5069253;28;20033;-83
2021/09/14 03:12:52;;;;;;;7.95;5.72;;;16.60;99.90;;;;;;5051711;28;20029;-83
2021/09/14 03:15:18;;;;;;;11.02;6.03;;;16.60;99.90;;;;;;5053706;28;20500;-82
2021/09/14 03:17:43;;;;;;;10.23;6.18;;;16.60;99.90;;;;;;5051387;28;20079;-83
2021/09/14 03:20:09;;;;;;;9.30;5.90;;;16.60;99.90;;;;;;5066507;28;20028;-84
2021/09/14 03:22:35;;;;;;;10.70;5.43;;;16.60;99.90;;;;;;5072091;28;20366;-82
2021/09/14 03:25:00;;;;;;;9.20;4.97;;;16.70;99.90;;;;;;5067606;28;20059;-82
2021/09/14 03:27:26;;;;;;;10.15;5.05;;;16.60;99.90;;;;;;5052764;28;20048;-82
2021/09/14 03:29:52;;;;;;;8.13;5.00;;;16.70;99.90;;;;;;5067981;28;20029;-82
2021/09/14 03:32:17;;;;;;;14.13;5.90;;;16.70;99.90;;;;;;5068406;28;20031;-84
2021/09/14 03:34:43;;;;;;;9.73;5.75;;;16.70;99.90;;;;;;5056177;28;20119;-82
2021/09/14 03:37:08;;;;;;;11.23;5.95;;;16.80;99.90;;;;;;5064567;28;20038;-82
2021/09/14 03:39:34;;;;;;;8.70;5.50;;;16.70;99.90;;;;;;5071497;28;20033;-83
2021/09/14 03:42:00;;;;;;;10.35;5.70;;;16.70;99.90;;;;;;5063975;28;20066;-82
2021/09/14 03:44:25;;;;;;;10.15;5.68;;;16.70;99.90;;;;;;5070665;28;20043;-82
2021/09/14 03:46:51;;;;;;;7.70;5.53;;;16.70;99.90;;;;;;5072750;28;20064;-81
2021/09/14 03:49:16;;;;;;;6.78;5.03;;;16.70;99.90;;;;;;5072361;28;20408;-82
2021/09/14 03:51:42;;;;;;;9.20;5.43;;;16.70;99.90;;;;;;5067728;28;20029;-82
2021/09/14 03:54:07;;;;;;;7.38;5.32;;;16.70;99.90;;;;;;5064625;28;20449;-82
2021/09/14 03:56:33;;;;;;;9.77;5.60;;;16.70;99.90;;;;;;5072751;28;20024;-82
2021/09/14 03:58:59;;;;;;;9.93;5.28;;;16.60;99.90;;;;;;5071874;28;20393;-82
2021/09/14 04:01:24;;;;;;;9.02;5.47;;;16.60;99.90;;;;;;5067315;28;20490;-82
2021/09/14 04:03:55;;;;;;;10.55;5.68;;;16.60;99.90;;;;;;5052933;28;20051;-82
2021/09/14 04:08:53;;;;;;;9.82;5.93;;;16.60;99.90;;;;;;5052788;28;20404;-82
2021/09/14 04:11:21;;;;;;;11.65;5.97;;;16.50;99.90;;;;;;5076757;28;20028;-82
2021/09/14 04:13:48;;;;;;;7.97;5.38;;;16.50;99.90;;;;;;5068556;28;20126;-82
2021/09/14 04:16:14;;;;;;;9.30;5.57;;;16.50;99.90;;;;;;5051811;28;20021;-82
2021/09/14 04:18:40;;;;;;;9.77;6.20;;;16.40;99.90;;;;;;5052780;28;20036;-82
2021/09/14 04:21:06;;;;;;;10.20;5.88;;;16.50;99.90;;;;;;5052795;28;20025;-82
2021/09/14 04:23:31;;;;;;;8.20;5.65;;;16.40;99.90;;;;;;5057157;28;20040;-82
2021/09/14 04:25:57;;;;;;;8.73;5.50;;;16.40;99.90;;;;;;5061526;28;20021;-82
2021/09/14 04:28:23;;;;;;;9.32;5.97;;;16.40;99.90;;;;;;5051337;28;20516;-82
2021/09/14 04:30:48;;;;;;;9.65;5.72;;;16.40;99.90;;;;;;5054772;28;20135;-82
2021/09/14 04:33:14;;;;;;;10.48;5.55;;;16.30;99.90;;;;;;5062202;28;20067;-83
2021/09/14 04:35:39;;;;;;;13.73;5.82;;;16.30;99.90;;;;;;5069196;28;20146;-82
2021/09/14 04:38:05;;;;;;;8.60;5.55;;;16.30;99.90;;;;;;5067762;28;20085;-84
2021/09/14 04:40:32;;;;;;;9.38;5.10;;;16.30;99.90;;;;;;5068772;28;20025;-82
2021/09/14 04:42:57;;;;;;;7.75;4.93;;;16.30;99.90;;;;;;5052005;28;20032;-82
2021/09/14 04:45:23;;;;;;;9.60;5.35;;;16.30;99.90;;;;;;5059651;28;20028;-82
2021/09/14 04:47:49;;;;;;;10.27;5.28;;;16.30;99.90;;;;;;5063049;28;20107;-82
2021/09/14 04:50:14;;;;;;;10.02;5.45;;;16.30;99.90;;;;;;5070944;28;20103;-82
2021/09/14 04:52:40;;;;;;;8.90;5.10;;;16.20;99.90;;;;;;5068933;28;20024;-82
2021/09/14 04:55:06;;;;;;;9.63;5.57;;;16.30;99.90;;;;;;5063748;28;20031;-82
2021/09/14 04:57:31;;;;;;;9.32;5.43;;;16.20;99.90;;;;;;5073212;28;20031;-82
2021/09/14 04:59:57;;;;;;;10.23;5.57;;;16.20;99.90;;;;;;5069326;28;20016;-82
2021/09/14 05:02:23;;;;;;;9.35;5.07;;;16.10;99.90;;;;;;5071644;28;20046;-81
2021/09/14 05:04:48;;;;;;;11.68;5.57;;;16.20;99.90;;;;;;5061483;28;20058;-82
2021/09/14 05:07:14;;;;;;;11.32;5.53;;;16.10;99.90;;;;;;5073675;28;20028;-82
2021/09/14 05:09:40;;;;;;;8.27;5.20;;;16.10;99.90;;;;;;5071460;28;20086;-82
2021/09/14 05:12:06;;;;;;;9.93;5.43;;;16.10;99.90;;;;;;5059061;28;20171;-82
2021/09/14 05:14:31;;;;;;;11.15;6.57;;;16.10;99.90;;;;;;5063397;28;20444;-82
2021/09/14 05:16:57;;;;;;;8.60;5.50;;;16.00;99.90;;;;;;5065867;28;20023;-82
2021/09/14 05:19:33;;;;;;;9.88;5.85;;;16.00;99.90;;;;;;5072794;28;20120;-82
2021/09/14 05:22:00;;;;;;;11.50;5.93;;;16.00;99.90;;;;;;5068834;28;20454;-82
2021/09/14 05:24:30;;;;;;;9.88;5.93;;;15.90;99.90;;;;;;5070623;28;20455;-82
2021/09/14 05:26:57;;;;;;;10.65;5.70;;;15.90;99.90;;;;;;5068510;28;20051;-82
2021/09/14 05:29:24;;;;;;;10.85;6.75;;;15.90;99.90;;;;;;5070250;28;20059;-82
2021/09/14 05:31:51;;;;;;;11.52;6.40;;;15.90;99.90;;;;;;5069799;28;20031;-82
2021/09/14 05:34:17;;;;;;;13.35;6.93;;;15.90;99.90;;;;;;5068234;28;20456;-82
2021/09/14 05:36:43;;;;;;;13.93;7.03;;;16.00;99.90;;;;;;5069140;28;20130;-82
2021/09/14 05:39:09;;;;;;;10.95;6.43;;;15.80;99.90;;;;;;5052279;28;20021;-83
2021/09/14 05:41:35;;;;;;;11.75;6.70;;;15.70;99.90;;;;;;5050979;28;20027;-83
2021/09/14 05:44:01;;;;;;;12.70;6.95;;;15.70;99.90;;;;;;5062039;28;20017;-82
2021/09/14 05:46:27;;;;;;;9.48;6.65;;;15.70;99.90;;;;;;5070964;28;20040;-83
2021/09/14 05:48:52;;;;;;;8.55;6.03;;;15.90;99.90;;;;;;5067928;28;20020;-82
2021/09/14 05:51:19;;;;;;;9.93;6.60;;;15.90;99.90;;;;;;5055274;28;20117;-85
2021/09/14 05:53:46;;;;;;;9.82;6.90;;;16.00;99.90;;;;;;5055398;28;20055;-82
2021/09/14 05:56:12;;;;;;;11.43;7.28;;;16.10;99.90;;;;;;5055529;28;20078;-81
2021/09/14 05:58:38;;;;;;;18.48;6.13;;;16.10;99.90;;;;;;5071767;28;20783;-81
2021/09/14 06:01:04;;;;;;;9.05;6.18;;;16.20;99.90;;;;;;5064643;28;20024;-81
2021/09/14 06:03:33;;;;;;;9.63;6.82;;;16.30;99.90;;;;;;5055217;28;20191;-81
2021/09/14 06:05:59;;;;;;;9.57;5.97;;;16.40;99.90;;;;;;5053630;28;20192;-82
2021/09/14 06:08:27;;;;;;;11.73;5.93;;;16.50;99.90;;;;;;5052475;28;20523;-82
2021/09/14 06:10:53;;;;;;;10.35;6.40;;;16.70;99.90;;;;;;5035084;28;20029;-82
2021/09/14 06:13:23;;;;;;;12.70;6.93;;;16.70;99.90;;;;;;5051800;28;20028;-82
2021/09/14 06:15:48;;;;;;;10.50;5.97;;;16.80;99.90;;;;;;5051577;28;20029;-82
2021/09/14 06:18:15;;;;;;;14.43;6.30;;;16.90;99.90;;;;;;5058394;28;20086;-83
2021/09/14 06:20:41;;;;;;;10.05;6.20;;;17.00;99.90;;;;;;5051108;28;20029;-83
2021/09/14 06:23:09;;;;;;;8.82;5.40;;;17.10;99.90;;;;;;5061707;28;20024;-83
2021/09/14 06:25:37;;;;;;;10.43;5.60;;;17.20;99.90;;;;;;5064816;28;20416;-82
2021/09/14 06:28:03;;;;;;;10.93;6.15;;;17.30;99.90;;;;;;5064543;28;20489;-83
2021/09/14 06:30:29;;;;;;;11.75;6.07;;;17.40;99.90;;;;;;5060571;28;20503;-82
2021/09/14 06:32:55;;;;;;;8.95;4.63;;;17.60;99.90;;;;;;5073040;28;20119;-82
2021/09/14 06:35:20;;;;;;;12.10;6.20;;;17.60;99.90;;;;;;5071157;28;20033;-83
2021/09/14 06:37:46;;;;;;;8.98;5.82;;;17.70;99.90;;;;;;5073951;28;20060;-83
2021/09/14 06:40:11;;;;;;;8.40;6.20;;;17.80;99.90;;;;;;5068503;28;20041;-82
2021/09/14 06:42:37;;;;;;;11.32;6.45;;;17.90;99.90;;;;;;5068199;28;20135;-83
2021/09/14 06:45:03;;;;;;;8.38;6.28;;;18.10;99.90;;;;;;5068019;28;20604;-82
2021/09/14 06:47:29;;;;;;;8.65;6.03;;;17.90;99.90;;;;;;5068079;28;20033;-83
2021/09/14 06:49:54;;;;;;;9.77;6.55;;;17.90;99.90;;;;;;5051844;28;20048;-83
2021/09/14 06:52:20;;;;;;;10.07;6.28;;;17.90;99.90;;;;;;5052589;28;20033;-83
2021/09/14 06:54:45;;;;;;;9.52;5.43;;;18.00;99.90;;;;;;5051188;28;20609;-82
2021/09/14 06:57:11;;;;;;;9.60;5.45;;;18.10;99.90;;;;;;5052511;28;20032;-83
2021/09/14 06:59:36;;;;;;;9.32;5.50;;;18.20;99.90;;;;;;5051052;28;20123;-83
2021/09/14 07:02:02;;;;;;;10.35;5.68;;;18.30;99.90;;;;;;5067494;28;20075;-83
2021/09/14 07:04:28;;;;;;;8.82;5.53;;;18.40;99.90;;;;;;5068026;28;20051;-83
2021/09/14 07:06:53;;;;;;;9.77;5.38;;;18.60;99.90;;;;;;5056615;28;20166;-83
2021/09/14 07:09:19;;;;;;;11.50;5.57;;;18.70;99.90;;;;;;5050369;28;20025;-83
2021/09/14 07:11:45;;;;;;;9.45;5.53;;;18.80;99.90;;;;;;5067288;28;20111;-83
2021/09/14 07:14:11;;;;;;;10.40;5.88;;;18.80;99.90;;;;;;5064878;28;20028;-83
2021/09/14 07:16:37;;;;;;;9.35;5.57;;;18.70;99.90;;;;;;5050423;28;20105;-82
2021/09/14 07:19:03;;;;;;;8.10;5.22;;;18.70;99.90;;;;;;5051625;28;20053;-83
2021/09/14 07:21:28;;;;;;;9.93;5.85;;;18.60;99.90;;;;;;5051198;28;20645;-83
2021/09/14 07:23:54;;;;;;;7.30;5.07;;;18.60;99.90;;;;;;5064084;28;20560;-83
2021/09/14 07:26:20;;;;;;;8.07;4.90;;;18.70;99.90;;;;;;5067066;28;20053;-82
2021/09/14 07:28:45;;;;;;;8.88;5.30;;;18.80;99.90;;;;;;5051365;28;20024;-81
2021/09/14 07:31:11;;;;;;;13.70;5.53;;;18.80;99.90;;;;;;5062488;28;20017;-81
2021/09/14 07:33:38;;;;;;;13.23;5.60;;;18.80;99.90;;;;;;5070526;28;20133;-81
2021/09/14 07:36:08;;;;;;;9.10;5.40;;;18.80;99.90;;;;;;5071629;28;20521;-81
2021/09/14 07:38:35;;;;;;;11.77;5.35;;;18.70;99.90;;;;;;5069006;28;20082;-82
2021/09/14 07:41:00;;;;;;;8.38;5.00;;;18.90;99.90;;;;;;5051352;28;20037;-82
2021/09/14 07:43:26;;;;;;;10.40;5.15;;;18.90;99.90;;;;;;5049928;28;20090;-82
2021/09/14 07:45:51;;;;;;;10.10;5.10;;;18.90;99.90;;;;;;5050388;28;20021;-82
2021/09/14 07:48:17;;;;;;;7.10;4.72;;;19.00;99.90;;;;;;5051108;28;20024;-82
2021/09/14 07:50:42;;;;;;;10.18;5.00;;;19.10;99.90;;;;;;5051288;28;20053;-82
2021/09/14 07:53:08;;;;;;;8.90;5.28;;;19.20;99.90;;;;;;5051053;28;20025;-82
2021/09/14 07:55:34;;;;;;;10.50;4.47;;;19.40;99.90;;;;;;5051810;28;20029;-82
2021/09/14 07:58:00;;;;;;;11.50;4.88;;;19.30;99.90;;;;;;5049926;28;20478;-82
2021/09/14 08:00:25;;;;;;;6.57;4.53;;;19.40;99.90;;;;;;5049902;28;20024;-82
2021/09/14 08:02:55;;;;;;;11.63;4.80;;;19.50;99.90;;;;;;5049719;28;20036;-82
2021/09/14 08:05:21;;;;;;;9.90;3.97;;;19.70;99.90;;;;;;5050426;28;20043;-83
2021/09/14 08:07:46;;;;;;;7.20;4.38;;;19.80;99.90;;;;;;5051222;28;20104;-82
2021/09/14 08:10:12;;;;;;;8.05;4.38;;;19.90;99.90;;;;;;5055277;28;20024;-82
2021/09/14 08:12:37;;;;;;;9.00;4.13;;;20.00;99.90;;;;;;5071223;28;20588;-82
2021/09/14 08:15:04;;;;;;;8.50;4.53;;;20.20;99.90;;;;;;5061242;28;20040;-82
2021/09/14 08:17:29;;;;;;;11.13;4.32;;;20.20;99.90;;;;;;5049763;28;20047;-82
2021/09/14 08:19:55;;;;;;;10.25;4.28;;;20.30;99.90;;;;;;5050677;28;20033;-82
2021/09/14 08:22:23;;;;;;;8.93;4.85;;;20.40;99.90;;;;;;5051453;28;20052;-82
2021/09/14 08:24:48;;;;;;;6.45;4.50;;;20.40;99.90;;;;;;5050057;28;20025;-83
2021/09/14 08:27:14;;;;;;;10.23;4.72;;;20.30;99.90;;;;;;5051054;28;20040;-82
2021/09/14 08:29:39;;;;;;;8.25;4.07;;;20.50;99.90;;;;;;5052139;28;20051;-82
2021/09/14 08:32:05;;;;;;;8.90;4.60;;;20.50;99.90;;;;;;5068983;28;20032;-82
2021/09/14 08:34:31;;;;;;;8.90;4.20;;;20.60;99.90;;;;;;5074803;28;20111;-82
2021/09/14 08:36:57;;;;;;;7.15;4.13;;;20.80;99.90;;;;;;5073403;28;20024;-84
2021/09/14 08:39:23;;;;;;;9.38;4.18;;;20.80;99.90;;;;;;5073242;28;20397;-82
2021/09/14 08:41:50;;;;;;;10.63;4.13;;;21.10;99.90;;;;;;5069543;28;20033;-82
2021/09/14 08:44:16;;;;;;;6.72;3.63;;;21.20;99.90;;;;;;5054986;28;20032;-82
2021/09/14 08:46:43;;;;;;;9.02;4.00;;;21.50;99.90;;;;;;5054894;28;20473;-82
2021/09/14 08:49:14;;;;;;;7.75;3.90;;;21.40;99.90;;;;;;5054487;28;20510;-82
2021/09/14 08:51:40;;;;;;;7.15;4.03;;;21.40;99.90;;;;;;5068849;28;20116;-82
2021/09/14 08:54:05;;;;;;;14.32;3.97;;;21.60;99.90;;;;;;5054851;28;20095;-81
2021/09/14 08:56:31;;;;;;;8.02;3.80;;;21.80;99.90;;;;;;5053321;28;20091;-82
2021/09/14 08:58:59;;;;;;;9.95;4.63;;;22.10;99.90;;;;;;5054017;28;20103;-82
2021/09/14 09:01:25;;;;;;;6.03;3.50;;;22.10;99.90;;;;;;5054445;28;20506;-82
2021/09/14 09:03:59;;;;;;;7.22;3.72;;;22.10;99.90;;;;;;5054609;28;20075;-82
2021/09/14 09:06:36;;;;;;;5.88;3.38;;;22.20;99.90;;;;;;5097395;23;20523;-82
2021/09/14 09:09:13;;;;;;;10.40;4.03;;;22.30;99.90;;;;;;5093333;28;20032;-82
2021/09/14 09:12:02;;;;;;;7.43;3.30;;;22.50;99.90;;;;;;5074309;28;20043;-82
2021/09/14 09:14:55;;;;;;;7.75;3.58;;;22.70;99.90;;;;;;5083970;28;20024;-81
2021/09/14 09:17:21;;;;;;;7.07;3.72;;;22.70;99.90;;;;;;5053947;28;20091;-83
2021/09/14 09:19:57;;;;;;;6.25;3.50;;;22.80;99.90;;;;;;5055610;28;20033;-82
2021/09/14 09:22:24;;;;;;;6.68;3.30;;;23.00;99.90;;;;;;5060575;28;20102;-82
2021/09/14 09:24:52;;;;;;;6.10;3.30;;;23.20;99.90;;;;;;5074925;28;20048;-82
2021/09/14 09:27:22;;;;;;;6.55;3.30;;;23.40;99.90;;;;;;5075540;28;20362;-82
2021/09/14 09:30:06;;;;;;;6.00;2.93;;;23.70;99.90;;;;;;5091626;28;20025;-83
2021/09/14 09:32:50;;;;;;;5.28;3.25;;;23.80;99.90;;;;;;5079279;28;20750;-84
2021/09/14 09:35:27;;;;;;;6.20;2.85;;;23.80;99.90;;;;;;5078771;28;20082;-84
2021/09/14 09:37:54;;;;;;;5.50;2.83;;;24.10;99.90;;;;;;5095132;28;20029;-85
2021/09/14 09:40:33;;;;;;;6.38;3.65;;;24.00;99.90;;;;;;5078877;28;20017;-85
2021/09/14 09:43:05;;;;;;;6.68;3.30;;;23.80;99.90;;;;;;5074524;28;20029;-82
2021/09/14 09:45:30;;;;;;;5.63;3.05;;;23.80;99.90;;;;;;5059029;28;20119;-83
2021/09/14 09:47:56;;;;;;;6.85;2.92;;;23.90;99.90;;;;;;5058273;28;20040;-83
2021/09/14 09:50:22;;;;;;;6.07;2.95;;;24.00;99.90;;;;;;5059205;28;20028;-83
2021/09/14 09:52:49;;;;;;;5.53;2.88;;;24.00;99.90;;;;;;5095300;28;20021;-83
2021/09/14 09:55:14;;;;;;;4.45;3.08;;;24.20;99.90;;;;;;5078032;28;20024;-83
2021/09/14 09:57:40;;;;;;;10.23;3.13;;;24.20;99.90;;;;;;5077782;28;20119;-83
2021/09/14 10:00:13;;;;;;;5.20;2.88;;;24.40;99.90;;;;;;5078536;28;20074;-83
2021/09/14 10:02:44;;;;;;;5.32;2.70;;;24.50;99.90;;;;;;5077991;28;20404;-83
2021/09/14 10:05:12;;;;;;;4.05;2.63;;;24.40;99.90;;;;;;5077777;28;20029;-83
2021/09/14 10:07:42;;;;;;;5.05;2.90;;;24.50;99.90;;;;;;5072854;28;20100;-83
2021/09/14 10:10:08;;;;;;;5.50;3.40;;;24.70;99.90;;;;;;5059007;28;20025;-83
2021/09/14 10:12:35;;;;;;;5.85;3.75;;;24.90;99.90;;;;;;5059444;28;20017;-83
2021/09/14 10:15:03;;;;;;;4.90;3.10;;;25.00;99.90;;;;;;5075036;28;20028;-83
2021/09/14 10:17:30;;;;;;;6.22;3.13;;;25.00;99.90;;;;;;5078224;28;20508;-83
2021/09/14 10:20:07;;;;;;;7.47;3.30;;;25.10;99.90;;;;;;5078138;28;20481;-83
2021/09/14 10:22:32;;;;;;;6.97;3.10;;;25.30;99.90;;;;;;5093709;28;20025;-83
2021/09/14 10:25:01;;;;;;;5.38;2.90;;;25.50;99.90;;;;;;5077780;28;20064;-83
2021/09/14 10:27:37;;;;;;;4.88;2.85;;;25.50;99.90;;;;;;5078649;28;20109;-83
2021/09/14 10:30:04;;;;;;;7.03;3.22;;;25.60;99.90;;;;;;5077042;28;20021;-83
2021/09/14 10:32:41;;;;;;;7.53;3.25;;;25.30;99.90;;;;;;5081476;28;20025;-83
2021/09/14 10:35:09;;;;;;;6.07;3.17;;;25.50;99.90;;;;;;5058618;28;20485;-82
2021/09/14 10:37:36;;;;;;;5.60;2.88;;;25.40;99.90;;;;;;5058433;28;20025;-83
2021/09/14 10:40:15;;;;;;;4.78;3.00;;;25.40;99.90;;;;;;5058656;28;20100;-82
2021/09/14 10:42:46;;;;;;;5.18;2.95;;;25.30;99.90;;;;;;5073913;28;20028;-83
2021/09/14 10:45:17;;;;;;;6.10;2.90;;;25.30;99.90;;;;;;5058217;28;20033;-83
2021/09/14 10:47:48;;;;;;;;;;;25.70;99.90;;;;;;5074323;28;20443;-83
2021/09/14 10:50:28;;;;;;;4.40;3.10;;;25.70;99.90;;;;;;5064972;28;19904;-83
2021/09/14 10:52:59;;;;;;;5.95;2.90;;;25.90;99.90;;;;;;5077551;28;20079;-83
2021/09/14 10:55:26;;;;;;;5.38;3.30;;;26.10;99.90;;;;;;5077753;28;20099;-83
2021/09/14 10:58:00;;;;;;;5.60;2.97;;;26.20;99.90;;;;;;5093203;28;20032;-83
2021/09/14 11:00:33;;;;;;;5.85;3.30;;;26.20;99.90;;;;;;5063835;28;20056;-83
2021/09/14 11:03:01;;;;;;;7.20;3.00;;;26.40;99.90;;;;;;5058688;28;20049;-83
2021/09/14 11:05:33;;;;;;;7.15;3.10;;;26.50;99.90;;;;;;5072841;28;20028;-83
2021/09/14 11:07:59;;;;;;;;;;;26.50;99.90;;;;;;5066745;28;20037;-84
2021/09/14 11:10:30;;;;;;;5.05;3.00;;;26.50;99.90;;;;;;5078540;28;19911;-83
2021/09/14 11:12:56;;;;;;;5.28;3.00;;;26.50;99.90;;;;;;5077462;28;20035;-83
2021/09/14 11:15:22;;;;;;;5.40;3.10;;;26.80;99.90;;;;;;5089290;28;20089;-83
2021/09/14 11:17:48;;;;;;;5.22;3.47;;;26.90;99.90;;;;;;5065217;28;20507;-83
2021/09/14 11:20:20;;;;;;;6.18;2.90;;;27.10;99.90;;;;;;5061062;28;20116;-84
2021/09/14 11:22:46;;;;;;;;;;;27.10;99.90;;;;;;5057189;28;20080;-84
2021/09/14 11:25:20;;;;;;;5.60;2.85;;;27.40;99.90;;;;;;5063724;28;19979;-83
2021/09/14 11:28:00;;;;;;;6.07;2.80;;;27.50;99.90;;;;;;5076447;28;20036;-83
2021/09/14 11:30:26;;;;;;;6.40;3.10;;;27.40;99.90;;;;;;5076401;28;20025;-84
2021/09/14 11:32:53;;;;;;;4.97;2.42;;;27.50;99.80;;;;;;5077032;28;20017;-83
2021/09/14 11:35:19;;;;;;;5.25;2.90;;;27.60;99.90;;;;;;5073950;28;20025;-84
2021/09/14 11:37:59;;;;;;;5.60;3.10;;;27.40;99.90;;;;;;5076952;28;20455;-84
2021/09/14 11:40:26;;;;;;;5.82;2.88;;;27.40;99.90;;;;;;5074584;28;20024;-82
2021/09/14 11:42:56;;;;;;;4.18;2.42;;;27.60;99.90;;;;;;5056661;28;20521;-84
2021/09/14 11:45:25;;;;;;;6.05;3.13;;;27.10;99.90;;;;;;5056342;28;20032;-84
2021/09/14 11:47:52;;;;;;;5.65;3.00;;;27.10;99.90;;;;;;5069603;28;20029;-83
2021/09/14 11:50:35;;;;;;;5.68;2.97;;;27.40;99.90;;;;;;5070159;28;20051;-84
2021/09/14 11:53:05;;;;;;;4.65;2.97;;;27.40;99.90;;;;;;5092779;28;20597;-83
2021/09/14 11:55:31;;;;;;;5.82;3.03;;;27.40;99.90;;;;;;5075948;28;20013;-83
2021/09/14 11:57:59;;;;;;;5.18;3.05;;;27.20;99.90;;;;;;5071918;28;20107;-84
2021/09/14 12:00:38;;;;;;;5.35;2.90;;;27.10;99.90;;;;;;5068637;28;20036;-83
2021/09/14 12:03:04;;;;;;;5.13;2.95;;;26.80;99.90;;;;;;5074123;28;20362;-84
2021/09/14 12:05:32;;;;;;;5.68;2.97;;;26.70;99.90;;;;;;5072688;28;20036;-83
2021/09/14 12:07:59;;;;;;;6.78;2.97;;;26.50;99.90;;;;;;5080798;28;20036;-84
2021/09/14 12:10:26;;;;;;;5.65;2.83;;;26.70;99.90;;;;;;5070050;28;20052;-82
2021/09/14 12:12:53;;;;;;;4.97;3.20;;;26.70;99.90;;;;;;5069182;28;20102;-81
2021/09/14 12:15:21;;;;;;;4.45;2.83;;;26.70;99.90;;;;;;5068405;28;20071;-82
2021/09/14 12:17:47;;;;;;;5.72;2.45;;;26.70;99.90;;;;;;5078147;28;20001;-82
2021/09/14 12:20:14;;;;;;;5.57;2.80;;;26.60;99.90;;;;;;5080652;28;20032;-83
2021/09/14 12:22:39;;;;;;;6.20;2.95;;;26.50;99.90;;;;;;5074511;28;20535;-83
2021/09/14 12:25:06;;;;;;;5.10;2.70;;;26.60;99.90;;;;;;5073233;28;20028;-81
2021/09/14 12:27:32;;;;;;;5.38;2.83;;;26.70;99.90;;;;;;5068298;28;20497;-82
2021/09/14 12:29:58;;;;;;;7.65;2.75;;;26.70;99.60;;;;;;5068122;28;20031;-82
2021/09/14 12:32:24;;;;;;;3.90;2.40;;;26.80;99.70;;;;;;5072231;28;20489;-82
2021/09/14 12:34:49;;;;;;;4.75;2.67;;;27.00;99.90;;;;;;5070670;28;20024;-82
2021/09/14 12:37:15;;;;;;;4.95;2.63;;;27.10;99.30;;;;;;5065029;28;20585;-82
2021/09/14 12:39:41;;;;;;;4.78;2.67;;;27.30;99.10;;;;;;5065310;28;20058;-82
2021/09/14 12:42:07;;;;;;;5.65;3.00;;;27.40;98.90;;;;;;5069222;28;20028;-82
2021/09/14 12:44:33;;;;;;;5.78;2.80;;;27.50;98.20;;;;;;5069005;28;20115;-82
2021/09/14 12:46:58;;;;;;;6.72;3.10;;;27.50;99.20;;;;;;5069319;28;20028;-82
2021/09/14 12:49:24;;;;;;;5.85;2.92;;;27.60;99.20;;;;;;5066226;28;20036;-82
2021/09/14 12:51:50;;;;;;;7.22;3.63;;;27.70;99.50;;;;;;5071094;28;20484;-82
2021/09/14 12:54:16;;;;;;;7.68;3.70;;;27.80;99.00;;;;;;5067012;28;20028;-83
2021/09/14 12:56:42;;;;;;;8.07;3.90;;;27.90;98.80;;;;;;5067629;28;20021;-82
2021/09/14 12:59:08;;;;;;;7.03;4.20;;;27.80;99.10;;;;;;5073452;28;20025;-83
2021/09/14 13:01:34;;;;;;;8.07;3.58;;;27.70;98.80;;;;;;5076956;28;20439;-83
2021/09/14 13:04:00;;;;;;;5.00;3.53;;;27.80;99.20;;;;;;5077802;28;20028;-84
2021/09/14 13:06:26;;;;;;;7.78;3.70;;;27.80;99.20;;;;;;5077462;28;20035;-82
2021/09/14 13:08:51;;;;;;;6.20;3.72;;;28.00;98.90;;;;;;5069926;28;20078;-83
2021/09/14 13:11:17;;;;;;;8.70;3.50;;;28.40;98.50;;;;;;5080083;28;20136;-83
2021/09/14 13:16:27;;;;;;;7.95;3.35;;;29.10;97.50;;;;;;5079752;28;20035;-84
2021/09/14 13:18:53;;;;;;;7.68;4.25;;;29.40;96.70;;;;;;5078061;28;20409;-83
2021/09/14 13:21:21;;;;;;;7.03;3.72;;;29.40;96.20;;;;;;5083592;28;20500;-84
2021/09/14 13:23:51;;;;;;;7.15;3.22;;;29.50;95.90;;;;;;5064986;28;20024;-85
2021/09/14 13:26:17;;;;;;;7.75;3.67;;;29.20;96.20;;;;;;5072994;28;20032;-83
2021/09/14 13:28:43;;;;;;;6.65;4.20;;;29.40;96.00;;;;;;5075034;28;20040;-84
2021/09/14 13:31:09;;;;;;;6.70;3.78;;;29.50;95.50;;;;;;5075530;28;20550;-85
2021/09/14 13:33:35;;;;;;;6.90;3.85;;;29.60;95.80;;;;;;5079911;28;20431;-85
2021/09/14 13:36:02;;;;;;;4.97;3.60;;;29.60;95.30;;;;;;5076671;28;20271;-85
2021/09/14 13:38:29;;;;;;;5.57;3.47;;;29.40;95.60;;;;;;5077458;28;20036;-82
2021/09/14 13:41:02;;;;;;;11.00;4.05;;;29.70;95.00;;;;;;5077952;28;20640;-84
2021/09/14 13:46:10;;;;;;;6.72;3.65;;;30.10;94.50;;;;;;5076425;28;20094;-84
2021/09/14 13:48:36;;;;;;;4.88;3.67;;;30.20;94.50;;;;;;5077038;28;20028;-84